sensor_id;sensor_type;location;lat;lon;timestamp;P1;durP1;ratioP1;P2;durP2;ratioP2
68858;SDS011;55864;49.238;8.092;2023-02-15T00:01:27;45.70;;;17.80;;
68858;SDS011;55864;49.238;8.092;2023-02-15T00:03:34;50.33;;;20.07;;
68858;SDS011;55864;49.238;8.092;2023-02-15T00:05:39;46.70;;;17.50;;
68858;SDS011;55864;49.238;8.092;2023-02-15T00:07:42;41.28;;;17.13;;
68858;SDS011;55864;49.238;8.092;2023-02-15T00:09:45;49.10;;;17.40;;
68858;SDS011;55864;49.238;8.092;2023-02-15T00:11:48;46.40;;;17.27;;
68858;SDS011;55864;49.238;8.092;2023-02-15T00:13:52;49.10;;;18.40;;
68858;SDS011;55864;49.238;8.092;2023-02-15T00:15:56;46.40;;;18.40;;
68858;SDS011;55864;49.238;8.092;2023-02-15T00:18:02;46.50;;;17.60;;
68858;SDS011;55864;49.238;8.092;2023-02-15T00:20:14;44.23;;;16.73;;
68858;SDS011;55864;49.238;8.092;2023-02-15T00:22:17;47.07;;;16.70;;
68858;SDS011;55864;49.238;8.092;2023-02-15T00:24:22;67.10;;;27.67;;
68858;SDS011;55864;49.238;8.092;2023-02-15T00:26:26;62.78;;;24.70;;
68858;SDS011;55864;49.238;8.092;2023-02-15T00:28:43;53.43;;;20.47;;
68858;SDS011;55864;49.238;8.092;2023-02-15T00:30:53;56.73;;;20.50;;
68858;SDS011;55864;49.238;8.092;2023-02-15T00:33:11;54.07;;;20.77;;
68858;SDS011;55864;49.238;8.092;2023-02-15T00:35:15;49.03;;;18.47;;
68858;SDS011;55864;49.238;8.092;2023-02-15T00:37:22;42.50;;;16.27;;
68858;SDS011;55864;49.238;8.092;2023-02-15T00:39:28;44.37;;;16.90;;
68858;SDS011;55864;49.238;8.092;2023-02-15T00:41:33;45.43;;;17.43;;
68858;SDS011;55864;49.238;8.092;2023-02-15T00:43:42;37.23;;;14.23;;
68858;SDS011;55864;49.238;8.092;2023-02-15T00:45:46;36.17;;;14.40;;
68858;SDS011;55864;49.238;8.092;2023-02-15T00:47:57;40.73;;;14.13;;
68858;SDS011;55864;49.238;8.092;2023-02-15T00:49:59;41.10;;;15.57;;
68858;SDS011;55864;49.238;8.092;2023-02-15T00:52:02;44.67;;;14.87;;
68858;SDS011;55864;49.238;8.092;2023-02-15T00:54:06;45.20;;;15.23;;
68858;SDS011;55864;49.238;8.092;2023-02-15T00:56:16;43.43;;;16.47;;
68858;SDS011;55864;49.238;8.092;2023-02-15T00:58:21;44.63;;;16.17;;
68858;SDS011;55864;49.238;8.092;2023-02-15T01:00:24;42.45;;;15.75;;
68858;SDS011;55864;49.238;8.092;2023-02-15T01:02:27;45.20;;;15.73;;
68858;SDS011;55864;49.238;8.092;2023-02-15T01:04:29;44.28;;;16.02;;
68858;SDS011;55864;49.238;8.092;2023-02-15T01:06:45;46.43;;;16.70;;
68858;SDS011;55864;49.238;8.092;2023-02-15T01:08:50;43.35;;;16.10;;
68858;SDS011;55864;49.238;8.092;2023-02-15T01:10:59;46.50;;;16.00;;
68858;SDS011;55864;49.238;8.092;2023-02-15T01:13:05;38.83;;;15.40;;
68858;SDS011;55864;49.238;8.092;2023-02-15T01:15:08;37.72;;;14.55;;
68858;SDS011;55864;49.238;8.092;2023-02-15T01:17:18;40.43;;;14.43;;
68858;SDS011;55864;49.238;8.092;2023-02-15T01:19:26;37.38;;;15.55;;
68858;SDS011;55864;49.238;8.092;2023-02-15T01:21:28;43.37;;;15.70;;
68858;SDS011;55864;49.238;8.092;2023-02-15T01:23:33;41.65;;;14.55;;
68858;SDS011;55864;49.238;8.092;2023-02-15T01:25:45;36.90;;;13.70;;
68858;SDS011;55864;49.238;8.092;2023-02-15T01:27:54;41.90;;;15.90;;
68858;SDS011;55864;49.238;8.092;2023-02-15T01:29:57;43.00;;;15.50;;
68858;SDS011;55864;49.238;8.092;2023-02-15T01:31:59;38.95;;;15.30;;
68858;SDS011;55864;49.238;8.092;2023-02-15T01:34:04;43.70;;;16.00;;
68858;SDS011;55864;49.238;8.092;2023-02-15T01:36:11;38.97;;;14.33;;
68858;SDS011;55864;49.238;8.092;2023-02-15T01:38:19;34.93;;;14.53;;
68858;SDS011;55864;49.238;8.092;2023-02-15T01:40:24;40.20;;;15.10;;
68858;SDS011;55864;49.238;8.092;2023-02-15T01:42:27;33.83;;;12.90;;
68858;SDS011;55864;49.238;8.092;2023-02-15T01:44:49;36.15;;;13.68;;
68858;SDS011;55864;49.238;8.092;2023-02-15T01:47:07;38.20;;;15.07;;
68858;SDS011;55864;49.238;8.092;2023-02-15T01:49:17;38.97;;;14.97;;
68858;SDS011;55864;49.238;8.092;2023-02-15T01:51:24;42.83;;;15.27;;
68858;SDS011;55864;49.238;8.092;2023-02-15T01:53:40;35.93;;;14.80;;
68858;SDS011;55864;49.238;8.092;2023-02-15T01:55:50;35.67;;;14.43;;
68858;SDS011;55864;49.238;8.092;2023-02-15T01:57:56;39.63;;;14.80;;
68858;SDS011;55864;49.238;8.092;2023-02-15T02:00:05;52.07;;;13.63;;
68858;SDS011;55864;49.238;8.092;2023-02-15T02:02:18;46.27;;;13.50;;
68858;SDS011;55864;49.238;8.092;2023-02-15T02:04:29;38.77;;;13.73;;
68858;SDS011;55864;49.238;8.092;2023-02-15T02:06:38;36.83;;;14.20;;
68858;SDS011;55864;49.238;8.092;2023-02-15T02:08:45;32.53;;;12.50;;
68858;SDS011;55864;49.238;8.092;2023-02-15T02:10:56;37.45;;;13.57;;
68858;SDS011;55864;49.238;8.092;2023-02-15T02:12:59;41.07;;;13.93;;
68858;SDS011;55864;49.238;8.092;2023-02-15T02:15:13;33.37;;;13.17;;
68858;SDS011;55864;49.238;8.092;2023-02-15T02:17:18;40.00;;;13.23;;
68858;SDS011;55864;49.238;8.092;2023-02-15T02:19:45;36.03;;;13.10;;
68858;SDS011;55864;49.238;8.092;2023-02-15T02:24:37;29.63;;;11.93;;
68858;SDS011;55864;49.238;8.092;2023-02-15T02:29:37;31.77;;;12.30;;
68858;SDS011;55864;49.238;8.092;2023-02-15T02:32:04;32.22;;;12.07;;
68858;SDS011;55864;49.238;8.092;2023-02-15T02:34:22;31.57;;;12.27;;
68858;SDS011;55864;49.238;8.092;2023-02-15T02:36:31;31.13;;;11.47;;
68858;SDS011;55864;49.238;8.092;2023-02-15T02:38:42;32.93;;;12.10;;
68858;SDS011;55864;49.238;8.092;2023-02-15T02:40:54;31.53;;;12.37;;
68858;SDS011;55864;49.238;8.092;2023-02-15T02:43:08;34.53;;;12.55;;
68858;SDS011;55864;49.238;8.092;2023-02-15T02:45:19;29.43;;;12.43;;
68858;SDS011;55864;49.238;8.092;2023-02-15T02:47:26;33.73;;;12.63;;
68858;SDS011;55864;49.238;8.092;2023-02-15T02:49:34;33.40;;;12.93;;
68858;SDS011;55864;49.238;8.092;2023-02-15T02:51:36;31.43;;;12.23;;
68858;SDS011;55864;49.238;8.092;2023-02-15T02:53:37;31.63;;;12.50;;
68858;SDS011;55864;49.238;8.092;2023-02-15T02:55:38;30.47;;;12.47;;
68858;SDS011;55864;49.238;8.092;2023-02-15T02:57:45;29.77;;;11.60;;
68858;SDS011;55864;49.238;8.092;2023-02-15T02:59:51;29.03;;;11.20;;
68858;SDS011;55864;49.238;8.092;2023-02-15T03:01:55;34.95;;;12.95;;
68858;SDS011;55864;49.238;8.092;2023-02-15T03:03:59;33.27;;;11.33;;
68858;SDS011;55864;49.238;8.092;2023-02-15T03:06:07;35.43;;;12.07;;
68858;SDS011;55864;49.238;8.092;2023-02-15T03:08:11;35.83;;;11.87;;
68858;SDS011;55864;49.238;8.092;2023-02-15T03:10:14;39.50;;;11.75;;
68858;SDS011;55864;49.238;8.092;2023-02-15T03:12:18;34.60;;;11.73;;
68858;SDS011;55864;49.238;8.092;2023-02-15T03:16:22;32.57;;;10.67;;
68858;SDS011;55864;49.238;8.092;2023-02-15T03:18:24;31.03;;;11.13;;
68858;SDS011;55864;49.238;8.092;2023-02-15T03:20:30;28.83;;;11.10;;
68858;SDS011;55864;49.238;8.092;2023-02-15T03:22:37;27.00;;;11.40;;
68858;SDS011;55864;49.238;8.092;2023-02-15T03:24:47;29.30;;;11.27;;
68858;SDS011;55864;49.238;8.092;2023-02-15T03:26:52;27.70;;;11.10;;
68858;SDS011;55864;49.238;8.092;2023-02-15T03:28:55;24.60;;;10.53;;
68858;SDS011;55864;49.238;8.092;2023-02-15T03:31:00;26.98;;;10.35;;
68858;SDS011;55864;49.238;8.092;2023-02-15T03:33:05;32.37;;;11.27;;
68858;SDS011;55864;49.238;8.092;2023-02-15T03:35:06;32.83;;;10.87;;
68858;SDS011;55864;49.238;8.092;2023-02-15T03:37:10;25.80;;;9.47;;
68858;SDS011;55864;49.238;8.092;2023-02-15T03:39:20;24.83;;;9.60;;
68858;SDS011;55864;49.238;8.092;2023-02-15T03:41:26;24.80;;;9.73;;
68858;SDS011;55864;49.238;8.092;2023-02-15T03:43:34;26.03;;;10.50;;
68858;SDS011;55864;49.238;8.092;2023-02-15T03:45:40;24.57;;;9.87;;
68858;SDS011;55864;49.238;8.092;2023-02-15T03:47:46;31.73;;;10.13;;
68858;SDS011;55864;49.238;8.092;2023-02-15T03:49:51;26.37;;;10.83;;
68858;SDS011;55864;49.238;8.092;2023-02-15T03:51:56;25.63;;;11.00;;
68858;SDS011;55864;49.238;8.092;2023-02-15T03:53:59;27.20;;;9.52;;
68858;SDS011;55864;49.238;8.092;2023-02-15T03:56:03;29.40;;;10.37;;
68858;SDS011;55864;49.238;8.092;2023-02-15T03:58:03;24.50;;;10.57;;
68858;SDS011;55864;49.238;8.092;2023-02-15T04:00:06;24.83;;;10.63;;
68858;SDS011;55864;49.238;8.092;2023-02-15T04:02:14;23.60;;;10.30;;
68858;SDS011;55864;49.238;8.092;2023-02-15T04:04:21;21.27;;;8.87;;
68858;SDS011;55864;49.238;8.092;2023-02-15T04:06:23;25.63;;;9.17;;
68858;SDS011;55864;49.238;8.092;2023-02-15T04:08:24;26.00;;;9.30;;
68858;SDS011;55864;49.238;8.092;2023-02-15T04:10:24;28.93;;;10.37;;
68858;SDS011;55864;49.238;8.092;2023-02-15T04:12:26;32.23;;;9.40;;
68858;SDS011;55864;49.238;8.092;2023-02-15T04:14:27;25.53;;;9.67;;
68858;SDS011;55864;49.238;8.092;2023-02-15T04:16:28;26.63;;;9.97;;
68858;SDS011;55864;49.238;8.092;2023-02-15T04:18:28;26.27;;;9.57;;
68858;SDS011;55864;49.238;8.092;2023-02-15T04:20:29;24.47;;;9.43;;
68858;SDS011;55864;49.238;8.092;2023-02-15T04:22:30;24.27;;;9.80;;
68858;SDS011;55864;49.238;8.092;2023-02-15T04:24:30;30.20;;;9.53;;
68858;SDS011;55864;49.238;8.092;2023-02-15T04:26:31;22.43;;;9.93;;
68858;SDS011;55864;49.238;8.092;2023-02-15T04:28:33;24.90;;;10.30;;
68858;SDS011;55864;49.238;8.092;2023-02-15T04:30:34;26.00;;;9.00;;
68858;SDS011;55864;49.238;8.092;2023-02-15T04:32:35;19.00;;;8.47;;
68858;SDS011;55864;49.238;8.092;2023-02-15T04:34:36;20.20;;;8.83;;
68858;SDS011;55864;49.238;8.092;2023-02-15T04:36:36;29.60;;;9.23;;
68858;SDS011;55864;49.238;8.092;2023-02-15T04:38:38;20.77;;;8.30;;
68858;SDS011;55864;49.238;8.092;2023-02-15T04:40:39;22.37;;;8.43;;
68858;SDS011;55864;49.238;8.092;2023-02-15T04:42:39;18.60;;;8.80;;
68858;SDS011;55864;49.238;8.092;2023-02-15T04:44:41;20.90;;;8.83;;
68858;SDS011;55864;49.238;8.092;2023-02-15T04:46:42;22.97;;;9.33;;
68858;SDS011;55864;49.238;8.092;2023-02-15T04:48:42;21.33;;;8.80;;
68858;SDS011;55864;49.238;8.092;2023-02-15T04:50:43;21.67;;;9.13;;
68858;SDS011;55864;49.238;8.092;2023-02-15T04:52:44;27.20;;;8.63;;
68858;SDS011;55864;49.238;8.092;2023-02-15T04:54:45;19.40;;;7.70;;
68858;SDS011;55864;49.238;8.092;2023-02-15T04:56:45;21.77;;;9.07;;
68858;SDS011;55864;49.238;8.092;2023-02-15T04:58:46;23.33;;;9.00;;
68858;SDS011;55864;49.238;8.092;2023-02-15T05:00:48;20.37;;;8.90;;
68858;SDS011;55864;49.238;8.092;2023-02-15T05:02:49;24.77;;;8.60;;
68858;SDS011;55864;49.238;8.092;2023-02-15T05:04:49;16.47;;;7.97;;
68858;SDS011;55864;49.238;8.092;2023-02-15T05:06:50;24.27;;;8.50;;
68858;SDS011;55864;49.238;8.092;2023-02-15T05:08:50;20.40;;;8.13;;
68858;SDS011;55864;49.238;8.092;2023-02-15T05:10:51;22.03;;;8.50;;
68858;SDS011;55864;49.238;8.092;2023-02-15T05:12:51;22.17;;;8.20;;
68858;SDS011;55864;49.238;8.092;2023-02-15T05:14:52;19.97;;;8.60;;
68858;SDS011;55864;49.238;8.092;2023-02-15T05:16:54;19.87;;;8.87;;
68858;SDS011;55864;49.238;8.092;2023-02-15T05:18:54;21.03;;;8.80;;
68858;SDS011;55864;49.238;8.092;2023-02-15T05:20:55;21.70;;;9.33;;
68858;SDS011;55864;49.238;8.092;2023-02-15T05:22:55;21.73;;;8.37;;
68858;SDS011;55864;49.238;8.092;2023-02-15T05:24:56;21.50;;;8.13;;
68858;SDS011;55864;49.238;8.092;2023-02-15T05:26:56;19.17;;;8.20;;
68858;SDS011;55864;49.238;8.092;2023-02-15T05:28:57;18.60;;;7.87;;
68858;SDS011;55864;49.238;8.092;2023-02-15T05:31:00;22.63;;;8.30;;
68858;SDS011;55864;49.238;8.092;2023-02-15T05:33:05;19.17;;;8.47;;
68858;SDS011;55864;49.238;8.092;2023-02-15T05:35:07;21.30;;;9.23;;
68858;SDS011;55864;49.238;8.092;2023-02-15T05:37:07;21.00;;;9.33;;
68858;SDS011;55864;49.238;8.092;2023-02-15T05:39:08;22.63;;;9.27;;
68858;SDS011;55864;49.238;8.092;2023-02-15T05:41:09;18.57;;;8.33;;
68858;SDS011;55864;49.238;8.092;2023-02-15T05:43:11;17.40;;;8.07;;
68858;SDS011;55864;49.238;8.092;2023-02-15T05:45:11;27.37;;;10.00;;
68858;SDS011;55864;49.238;8.092;2023-02-15T05:47:12;21.00;;;8.67;;
68858;SDS011;55864;49.238;8.092;2023-02-15T05:49:13;21.17;;;9.23;;
68858;SDS011;55864;49.238;8.092;2023-02-15T05:51:14;23.33;;;8.67;;
68858;SDS011;55864;49.238;8.092;2023-02-15T05:53:15;19.07;;;8.00;;
68858;SDS011;55864;49.238;8.092;2023-02-15T05:55:15;20.77;;;8.43;;
68858;SDS011;55864;49.238;8.092;2023-02-15T05:57:16;21.97;;;9.33;;
68858;SDS011;55864;49.238;8.092;2023-02-15T05:59:16;20.63;;;9.17;;
68858;SDS011;55864;49.238;8.092;2023-02-15T06:01:18;20.87;;;9.07;;
68858;SDS011;55864;49.238;8.092;2023-02-15T06:03:19;20.03;;;8.67;;
68858;SDS011;55864;49.238;8.092;2023-02-15T06:05:21;19.20;;;8.23;;
68858;SDS011;55864;49.238;8.092;2023-02-15T06:07:21;33.37;;;11.93;;
68858;SDS011;55864;49.238;8.092;2023-02-15T06:09:22;22.70;;;10.30;;
68858;SDS011;55864;49.238;8.092;2023-02-15T06:11:22;23.43;;;9.77;;
68858;SDS011;55864;49.238;8.092;2023-02-15T06:13:23;22.33;;;9.70;;
68858;SDS011;55864;49.238;8.092;2023-02-15T06:15:23;20.70;;;8.73;;
68858;SDS011;55864;49.238;8.092;2023-02-15T06:17:24;19.60;;;8.27;;
68858;SDS011;55864;49.238;8.092;2023-02-15T06:19:25;21.90;;;8.33;;
68858;SDS011;55864;49.238;8.092;2023-02-15T06:21:27;19.90;;;8.90;;
68858;SDS011;55864;49.238;8.092;2023-02-15T06:23:27;21.40;;;8.77;;
68858;SDS011;55864;49.238;8.092;2023-02-15T06:25:28;18.90;;;8.43;;
68858;SDS011;55864;49.238;8.092;2023-02-15T06:27:28;20.63;;;8.73;;
68858;SDS011;55864;49.238;8.092;2023-02-15T06:29:29;20.27;;;9.27;;
68858;SDS011;55864;49.238;8.092;2023-02-15T06:31:29;21.80;;;9.53;;
68858;SDS011;55864;49.238;8.092;2023-02-15T06:33:30;20.13;;;8.37;;
68858;SDS011;55864;49.238;8.092;2023-02-15T06:35:30;21.30;;;8.97;;
68858;SDS011;55864;49.238;8.092;2023-02-15T06:37:32;19.87;;;8.33;;
68858;SDS011;55864;49.238;8.092;2023-02-15T06:39:33;19.93;;;8.97;;
68858;SDS011;55864;49.238;8.092;2023-02-15T06:41:33;23.87;;;9.67;;
68858;SDS011;55864;49.238;8.092;2023-02-15T06:43:34;20.13;;;9.07;;
68858;SDS011;55864;49.238;8.092;2023-02-15T06:45:35;22.67;;;9.47;;
68858;SDS011;55864;49.238;8.092;2023-02-15T06:47:35;20.27;;;9.00;;
68858;SDS011;55864;49.238;8.092;2023-02-15T06:49:36;44.60;;;10.67;;
68858;SDS011;55864;49.238;8.092;2023-02-15T06:51:37;25.60;;;10.10;;
68858;SDS011;55864;49.238;8.092;2023-02-15T06:53:39;22.80;;;10.20;;
68858;SDS011;55864;49.238;8.092;2023-02-15T06:55:40;26.33;;;9.90;;
68858;SDS011;55864;49.238;8.092;2023-02-15T06:57:40;25.03;;;10.40;;
68858;SDS011;55864;49.238;8.092;2023-02-15T06:59:41;22.80;;;9.00;;
68858;SDS011;55864;49.238;8.092;2023-02-15T07:01:41;22.77;;;9.17;;
68858;SDS011;55864;49.238;8.092;2023-02-15T07:03:42;23.37;;;10.97;;
68858;SDS011;55864;49.238;8.092;2023-02-15T07:05:42;28.07;;;11.50;;
68858;SDS011;55864;49.238;8.092;2023-02-15T07:07:43;29.63;;;11.77;;
68858;SDS011;55864;49.238;8.092;2023-02-15T07:09:45;40.57;;;15.63;;
68858;SDS011;55864;49.238;8.092;2023-02-15T07:11:45;40.27;;;15.60;;
68858;SDS011;55864;49.238;8.092;2023-02-15T07:13:46;30.57;;;12.40;;
68858;SDS011;55864;49.238;8.092;2023-02-15T07:15:47;35.47;;;11.03;;
68858;SDS011;55864;49.238;8.092;2023-02-15T07:17:48;29.83;;;11.13;;
68858;SDS011;55864;49.238;8.092;2023-02-15T07:19:49;34.10;;;12.80;;
68858;SDS011;55864;49.238;8.092;2023-02-15T07:21:49;27.70;;;10.63;;
68858;SDS011;55864;49.238;8.092;2023-02-15T07:23:50;26.40;;;11.67;;
68858;SDS011;55864;49.238;8.092;2023-02-15T07:25:57;25.80;;;11.30;;
68858;SDS011;55864;49.238;8.092;2023-02-15T07:27:58;26.57;;;11.20;;
68858;SDS011;55864;49.238;8.092;2023-02-15T07:29:59;25.90;;;10.30;;
68858;SDS011;55864;49.238;8.092;2023-02-15T07:31:59;26.57;;;10.17;;
68858;SDS011;55864;49.238;8.092;2023-02-15T07:34:00;23.63;;;10.43;;
68858;SDS011;55864;49.238;8.092;2023-02-15T07:36:01;26.20;;;10.60;;
68858;SDS011;55864;49.238;8.092;2023-02-15T07:38:03;27.00;;;10.43;;
68858;SDS011;55864;49.238;8.092;2023-02-15T07:40:04;25.80;;;10.80;;
68858;SDS011;55864;49.238;8.092;2023-02-15T07:42:07;25.57;;;10.37;;
68858;SDS011;55864;49.238;8.092;2023-02-15T07:44:10;26.57;;;10.57;;
68858;SDS011;55864;49.238;8.092;2023-02-15T07:46:12;31.45;;;10.05;;
68858;SDS011;55864;49.238;8.092;2023-02-15T07:48:14;25.27;;;10.27;;
68858;SDS011;55864;49.238;8.092;2023-02-15T07:50:14;23.93;;;9.50;;
68858;SDS011;55864;49.238;8.092;2023-02-15T07:52:15;24.67;;;10.23;;
68858;SDS011;55864;49.238;8.092;2023-02-15T07:54:15;25.40;;;10.57;;
68858;SDS011;55864;49.238;8.092;2023-02-15T07:56:16;27.17;;;11.03;;
68858;SDS011;55864;49.238;8.092;2023-02-15T07:58:18;27.43;;;10.37;;
68858;SDS011;55864;49.238;8.092;2023-02-15T08:00:19;26.93;;;9.30;;
68858;SDS011;55864;49.238;8.092;2023-02-15T08:02:21;24.17;;;10.40;;
68858;SDS011;55864;49.238;8.092;2023-02-15T08:04:21;24.33;;;10.33;;
68858;SDS011;55864;49.238;8.092;2023-02-15T08:06:22;27.33;;;10.03;;
68858;SDS011;55864;49.238;8.092;2023-02-15T08:08:25;26.92;;;10.80;;
68858;SDS011;55864;49.238;8.092;2023-02-15T08:10:26;23.90;;;9.90;;
68858;SDS011;55864;49.238;8.092;2023-02-15T08:12:26;34.83;;;11.07;;
68858;SDS011;55864;49.238;8.092;2023-02-15T08:14:28;35.93;;;11.40;;
68858;SDS011;55864;49.238;8.092;2023-02-15T08:16:30;26.17;;;10.57;;
68858;SDS011;55864;49.238;8.092;2023-02-15T08:18:32;30.77;;;10.43;;
68858;SDS011;55864;49.238;8.092;2023-02-15T08:20:32;27.87;;;9.83;;
68858;SDS011;55864;49.238;8.092;2023-02-15T08:22:33;28.93;;;10.37;;
68858;SDS011;55864;49.238;8.092;2023-02-15T08:24:34;24.83;;;10.13;;
68858;SDS011;55864;49.238;8.092;2023-02-15T08:26:36;23.17;;;9.27;;
68858;SDS011;55864;49.238;8.092;2023-02-15T08:28:38;29.67;;;10.50;;
68858;SDS011;55864;49.238;8.092;2023-02-15T08:30:41;26.50;;;9.90;;
68858;SDS011;55864;49.238;8.092;2023-02-15T08:32:41;28.97;;;11.10;;
68858;SDS011;55864;49.238;8.092;2023-02-15T08:34:42;27.60;;;9.70;;
68858;SDS011;55864;49.238;8.092;2023-02-15T08:36:43;27.90;;;11.17;;
68858;SDS011;55864;49.238;8.092;2023-02-15T08:38:44;24.73;;;9.97;;
68858;SDS011;55864;49.238;8.092;2023-02-15T08:40:44;25.23;;;10.07;;
68858;SDS011;55864;49.238;8.092;2023-02-15T08:42:45;28.50;;;10.93;;
68858;SDS011;55864;49.238;8.092;2023-02-15T08:44:45;35.30;;;11.77;;
68858;SDS011;55864;49.238;8.092;2023-02-15T08:46:48;29.10;;;11.03;;
68858;SDS011;55864;49.238;8.092;2023-02-15T08:48:49;27.20;;;9.68;;
68858;SDS011;55864;49.238;8.092;2023-02-15T08:50:50;26.60;;;10.20;;
68858;SDS011;55864;49.238;8.092;2023-02-15T08:52:50;28.93;;;10.47;;
68858;SDS011;55864;49.238;8.092;2023-02-15T08:54:51;26.00;;;11.07;;
68858;SDS011;55864;49.238;8.092;2023-02-15T08:56:51;26.97;;;10.73;;
68858;SDS011;55864;49.238;8.092;2023-02-15T08:58:52;27.13;;;9.73;;
68858;SDS011;55864;49.238;8.092;2023-02-15T09:00:53;30.30;;;10.70;;
68858;SDS011;55864;49.238;8.092;2023-02-15T09:02:55;27.83;;;9.83;;
68858;SDS011;55864;49.238;8.092;2023-02-15T09:04:55;33.03;;;11.33;;
68858;SDS011;55864;49.238;8.092;2023-02-15T09:06:56;35.40;;;12.53;;
68858;SDS011;55864;49.238;8.092;2023-02-15T09:08:57;32.57;;;11.93;;
68858;SDS011;55864;49.238;8.092;2023-02-15T09:11:04;31.50;;;11.07;;
68858;SDS011;55864;49.238;8.092;2023-02-15T09:13:09;27.13;;;10.43;;
68858;SDS011;55864;49.238;8.092;2023-02-15T09:15:09;25.23;;;9.97;;
68858;SDS011;55864;49.238;8.092;2023-02-15T09:17:10;26.63;;;10.07;;
68858;SDS011;55864;49.238;8.092;2023-02-15T09:19:12;28.03;;;11.50;;
68858;SDS011;55864;49.238;8.092;2023-02-15T09:21:13;24.57;;;9.27;;
68858;SDS011;55864;49.238;8.092;2023-02-15T09:23:15;26.75;;;10.88;;
68858;SDS011;55864;49.238;8.092;2023-02-15T09:25:16;25.37;;;10.60;;
68858;SDS011;55864;49.238;8.092;2023-02-15T09:27:16;24.07;;;9.77;;
68858;SDS011;55864;49.238;8.092;2023-02-15T09:29:17;25.70;;;10.40;;
68858;SDS011;55864;49.238;8.092;2023-02-15T09:31:19;25.73;;;10.53;;
68858;SDS011;55864;49.238;8.092;2023-02-15T09:33:21;23.53;;;9.10;;
68858;SDS011;55864;49.238;8.092;2023-02-15T09:35:23;28.73;;;10.10;;
68858;SDS011;55864;49.238;8.092;2023-02-15T09:37:23;26.43;;;10.13;;
68858;SDS011;55864;49.238;8.092;2023-02-15T09:39:25;29.10;;;10.77;;
68858;SDS011;55864;49.238;8.092;2023-02-15T09:41:32;25.33;;;10.03;;
68858;SDS011;55864;49.238;8.092;2023-02-15T09:43:42;25.97;;;10.50;;
68858;SDS011;55864;49.238;8.092;2023-02-15T09:45:58;25.47;;;9.70;;
68858;SDS011;55864;49.238;8.092;2023-02-15T09:50:41;28.80;;;10.53;;
68858;SDS011;55864;49.238;8.092;2023-02-15T09:52:54;25.43;;;9.80;;
68858;SDS011;55864;49.238;8.092;2023-02-15T09:55:15;28.17;;;10.93;;
68858;SDS011;55864;49.238;8.092;2023-02-15T09:57:30;27.63;;;10.30;;
68858;SDS011;55864;49.238;8.092;2023-02-15T09:59:38;29.47;;;11.10;;
68858;SDS011;55864;49.238;8.092;2023-02-15T10:01:45;27.83;;;11.43;;
68858;SDS011;55864;49.238;8.092;2023-02-15T10:03:58;28.27;;;11.93;;
68858;SDS011;55864;49.238;8.092;2023-02-15T10:06:17;27.63;;;10.87;;
68858;SDS011;55864;49.238;8.092;2023-02-15T10:08:35;34.33;;;11.53;;
68858;SDS011;55864;49.238;8.092;2023-02-15T10:10:50;34.17;;;11.83;;
68858;SDS011;55864;49.238;8.092;2023-02-15T10:13:06;37.15;;;12.60;;
68858;SDS011;55864;49.238;8.092;2023-02-15T10:15:27;28.67;;;11.13;;
68858;SDS011;55864;49.238;8.092;2023-02-15T10:17:44;31.47;;;11.03;;
68858;SDS011;55864;49.238;8.092;2023-02-15T10:19:57;33.70;;;13.00;;
68858;SDS011;55864;49.238;8.092;2023-02-15T10:24:24;30.00;;;11.07;;
68858;SDS011;55864;49.238;8.092;2023-02-15T10:26:37;33.83;;;12.27;;
68858;SDS011;55864;49.238;8.092;2023-02-15T10:28:45;33.63;;;12.77;;
68858;SDS011;55864;49.238;8.092;2023-02-15T10:30:49;31.97;;;10.77;;
68858;SDS011;55864;49.238;8.092;2023-02-15T10:32:53;28.07;;;10.03;;
68858;SDS011;55864;49.238;8.092;2023-02-15T10:35:01;34.33;;;12.80;;
68858;SDS011;55864;49.238;8.092;2023-02-15T10:39:49;34.00;;;12.20;;
68858;SDS011;55864;49.238;8.092;2023-02-15T10:41:58;36.00;;;13.10;;
68858;SDS011;55864;49.238;8.092;2023-02-15T10:44:12;35.50;;;12.43;;
68858;SDS011;55864;49.238;8.092;2023-02-15T10:46:28;37.87;;;13.50;;
68858;SDS011;55864;49.238;8.092;2023-02-15T10:48:45;32.43;;;12.70;;
68858;SDS011;55864;49.238;8.092;2023-02-15T10:51:00;37.00;;;14.77;;
68858;SDS011;55864;49.238;8.092;2023-02-15T10:53:08;43.57;;;17.83;;
68858;SDS011;55864;49.238;8.092;2023-02-15T10:55:23;40.23;;;15.70;;
68858;SDS011;55864;49.238;8.092;2023-02-15T10:57:33;34.20;;;14.27;;
68858;SDS011;55864;49.238;8.092;2023-02-15T10:59:48;35.60;;;13.77;;
68858;SDS011;55864;49.238;8.092;2023-02-15T11:01:58;35.30;;;12.95;;
68858;SDS011;55864;49.238;8.092;2023-02-15T11:04:07;36.27;;;13.40;;
68858;SDS011;55864;49.238;8.092;2023-02-15T11:06:30;35.60;;;12.47;;
68858;SDS011;55864;49.238;8.092;2023-02-15T11:08:35;37.47;;;13.52;;
68858;SDS011;55864;49.238;8.092;2023-02-15T11:10:41;39.47;;;13.50;;
68858;SDS011;55864;49.238;8.092;2023-02-15T11:12:45;36.57;;;12.83;;
68858;SDS011;55864;49.238;8.092;2023-02-15T11:14:49;37.25;;;13.75;;
68858;SDS011;55864;49.238;8.092;2023-02-15T11:16:57;36.73;;;12.50;;
68858;SDS011;55864;49.238;8.092;2023-02-15T11:19:03;36.00;;;12.43;;
68858;SDS011;55864;49.238;8.092;2023-02-15T11:21:09;34.97;;;13.57;;
68858;SDS011;55864;49.238;8.092;2023-02-15T11:23:17;38.20;;;13.43;;
68858;SDS011;55864;49.238;8.092;2023-02-15T11:25:19;33.33;;;12.87;;
68858;SDS011;55864;49.238;8.092;2023-02-15T11:27:25;33.63;;;11.73;;
68858;SDS011;55864;49.238;8.092;2023-02-15T11:29:31;33.40;;;12.13;;
68858;SDS011;55864;49.238;8.092;2023-02-15T11:31:36;42.67;;;16.00;;
68858;SDS011;55864;49.238;8.092;2023-02-15T11:33:43;41.93;;;14.50;;
68858;SDS011;55864;49.238;8.092;2023-02-15T11:35:48;37.53;;;13.73;;
68858;SDS011;55864;49.238;8.092;2023-02-15T11:37:54;36.33;;;13.63;;
68858;SDS011;55864;49.238;8.092;2023-02-15T11:39:59;35.90;;;13.67;;
68858;SDS011;55864;49.238;8.092;2023-02-15T11:42:04;40.88;;;15.55;;
68858;SDS011;55864;49.238;8.092;2023-02-15T11:44:12;45.60;;;16.73;;
68858;SDS011;55864;49.238;8.092;2023-02-15T11:46:17;37.40;;;14.60;;
68858;SDS011;55864;49.238;8.092;2023-02-15T11:48:18;40.30;;;14.83;;
68858;SDS011;55864;49.238;8.092;2023-02-15T11:50:19;32.33;;;12.97;;
68858;SDS011;55864;49.238;8.092;2023-02-15T11:52:22;40.67;;;15.37;;
68858;SDS011;55864;49.238;8.092;2023-02-15T11:54:25;37.23;;;13.33;;
68858;SDS011;55864;49.238;8.092;2023-02-15T11:56:30;32.60;;;12.70;;
68858;SDS011;55864;49.238;8.092;2023-02-15T11:58:35;31.73;;;12.33;;
68858;SDS011;55864;49.238;8.092;2023-02-15T12:00:40;34.63;;;13.10;;
68858;SDS011;55864;49.238;8.092;2023-02-15T12:02:44;34.17;;;13.63;;
68858;SDS011;55864;49.238;8.092;2023-02-15T12:04:51;35.07;;;13.23;;
68858;SDS011;55864;49.238;8.092;2023-02-15T12:06:55;44.00;;;16.40;;
68858;SDS011;55864;49.238;8.092;2023-02-15T12:09:01;34.97;;;13.73;;
68858;SDS011;55864;49.238;8.092;2023-02-15T12:11:06;36.63;;;14.30;;
68858;SDS011;55864;49.238;8.092;2023-02-15T12:13:10;36.97;;;14.73;;
68858;SDS011;55864;49.238;8.092;2023-02-15T12:15:13;38.72;;;12.65;;
68858;SDS011;55864;49.238;8.092;2023-02-15T12:17:14;34.80;;;12.63;;
68858;SDS011;55864;49.238;8.092;2023-02-15T12:19:29;38.00;;;14.90;;
68858;SDS011;55864;49.238;8.092;2023-02-15T12:21:33;37.63;;;14.17;;
68858;SDS011;55864;49.238;8.092;2023-02-15T12:23:41;35.27;;;14.30;;
68858;SDS011;55864;49.238;8.092;2023-02-15T12:25:49;39.97;;;14.47;;
68858;SDS011;55864;49.238;8.092;2023-02-15T12:27:53;36.87;;;13.37;;